Time;durP1;ratioP1;P1;durP2;ratioP2;P2;SDS_P1;SDS_P2;PMS_P1;PMS_P2;Temp;Humidity;BMP_temperature;BMP_pressure;BME280_temperature;BME280_humidity;BME280_pressure;Samples;Min_cycle;Max_cycle;Signal;HPM_P1;HPM_P2
2022/11/11 00:01:22;;;;;;;;;;;11.50;99.90;;;;;;5027237;28;19928;-67
2022/11/11 00:03:47;;;;;;;;;;;11.50;99.90;;;;;;5031459;28;19921;-67
2022/11/11 00:06:14;;;;;;;;;;;11.50;99.90;;;;;;5013895;28;20378;-67
2022/11/11 00:08:40;;;;;;;;;;;11.50;99.90;;;;;;5014554;28;19933;-66
2022/11/11 00:11:06;;;;;;;;;;;11.50;99.90;;;;;;5011750;28;19928;-67
2022/11/11 00:13:32;;;;;;;;;;;11.50;99.90;;;;;;5032710;28;19925;-67
2022/11/11 00:16:04;;;;;;;;;;;11.50;99.90;;;;;;5011366;28;20306;-67
2022/11/11 00:26:35;;;;;;;;;;;11.60;99.90;;;;;;5024379;28;20012;-67
2022/11/11 00:29:00;;;;;;;;;;;11.50;99.90;;;;;;5029126;28;20012;-68
2022/11/11 00:31:26;;;;;;;;;;;11.50;99.90;;;;;;5032225;28;19929;-67
2022/11/11 00:33:52;;;;;;;;;;;11.70;99.90;;;;;;5034235;28;20439;-68
2022/11/11 00:36:18;;;;;;;;;;;11.60;99.90;;;;;;5032325;28;19921;-67
2022/11/11 00:38:47;;;;;;;;;;;11.60;99.90;;;;;;5014276;28;20271;-67
2022/11/11 00:41:16;;;;;;;;;;;11.60;99.90;;;;;;5012649;28;19927;-67
2022/11/11 00:43:42;;;;;;;;;;;11.60;99.90;;;;;;5011760;28;20003;-67
2022/11/11 00:51:36;;;;;;;;;;;11.60;99.90;;;;;;5010197;28;20019;-67
2022/11/11 00:54:02;;;;;;;;;;;11.70;99.90;;;;;;5031666;28;20015;-66
2022/11/11 00:56:28;;;;;;;;;;;11.70;99.90;;;;;;5013841;28;19947;-67
2022/11/11 00:58:53;;;;;;;;;;;11.70;99.90;;;;;;5009390;28;19943;-67
2022/11/11 01:01:19;;;;;;;;;;;11.70;99.90;;;;;;5012365;28;19925;-66
2022/11/11 01:03:44;;;;;;;;;;;11.70;99.90;;;;;;5013626;28;19944;-67
2022/11/11 01:06:10;;;;;;;;;;;11.70;99.90;;;;;;5031804;28;19921;-66
2022/11/11 01:08:36;;;;;;;;;;;11.70;99.90;;;;;;5010138;28;19925;-67
2022/11/11 01:11:01;;;;;;;;;;;11.70;99.90;;;;;;5010943;28;19921;-66
2022/11/11 01:13:31;;;;;;;;;;;11.70;99.90;;;;;;5010948;28;19922;-66
2022/11/11 01:15:58;;;;;;;;;;;11.70;99.90;;;;;;5011297;28;19975;-66
2022/11/11 01:18:24;;;;;;;;;;;11.60;99.90;;;;;;4993708;28;19990;-66
2022/11/11 01:21:00;;;;;;;;;;;11.70;99.90;;;;;;5010549;28;19932;-66
2022/11/11 01:23:26;;;;;;;;;;;11.70;99.90;;;;;;5010222;28;19926;-66
2022/11/11 01:25:51;;;;;;;;;;;11.70;99.90;;;;;;5011094;28;20394;-66
2022/11/11 01:28:17;;;;;;;;;;;11.60;99.90;;;;;;5002612;28;19925;-66
2022/11/11 01:30:42;;;;;;;;;;;11.60;99.90;;;;;;5009461;28;19929;-66
2022/11/11 01:33:08;;;;;;;;;;;11.60;99.90;;;;;;5016389;28;20403;-66
2022/11/11 01:35:37;;;;;;;;;;;11.50;99.90;;;;;;5011285;28;19965;-66
2022/11/11 01:38:02;;;;;;;;;;;11.50;99.90;;;;;;5010963;28;19928;-66
2022/11/11 01:40:27;;;;;;;;;;;11.50;99.90;;;;;;5011031;28;19921;-66
2022/11/11 01:43:13;;;;;;;;;;;11.50;99.90;;;;;;5010289;28;19922;-66
2022/11/11 01:45:45;;;;;;;;;;;11.50;99.90;;;;;;5011374;28;20387;-66
2022/11/11 01:51:04;;;;;;;;;;;11.40;99.90;;;;;;5002094;28;19930;-67
2022/11/11 01:53:29;;;;;;;;;;;11.30;99.90;;;;;;5008572;28;19932;-66
2022/11/11 01:55:55;;;;;;;;;;;11.30;99.90;;;;;;5008951;28;19921;-66
2022/11/11 01:58:21;;;;;;;;;;;11.30;99.90;;;;;;5008706;28;20109;-66
2022/11/11 02:00:46;;;;;;;;;;;11.30;99.90;;;;;;5008819;28;20059;-66
2022/11/11 02:03:13;;;;;;;;;;;11.30;99.90;;;;;;5007094;28;19921;-66
2022/11/11 02:05:42;;;;;;;;;;;11.30;99.90;;;;;;5008714;28;19933;-66
2022/11/11 02:08:12;;;;;;;;;;;11.30;99.90;;;;;;5022106;28;19925;-66
2022/11/11 02:10:40;;;;;;;;;;;11.40;99.90;;;;;;5030472;28;19972;-67
2022/11/11 02:15:55;;;;;;;;;;;11.30;99.90;;;;;;5018751;28;20383;-66
2022/11/11 02:18:21;;;;;;;;;;;11.30;99.90;;;;;;5030858;28;19921;-66
2022/11/11 02:20:47;;;;;;;;;;;11.30;99.90;;;;;;5012968;28;19921;-66
2022/11/11 02:23:12;;;;;;;;;;;11.20;99.90;;;;;;5031726;28;19975;-66
2022/11/11 02:25:39;;;;;;;;;;;11.20;99.90;;;;;;5016632;28;20319;-66
2022/11/11 02:28:06;;;;;;;;;;;11.20;99.90;;;;;;5006343;28;20309;-66
2022/11/11 02:30:31;;;;;;;;;;;11.20;99.90;;;;;;5034431;28;19925;-66
2022/11/11 02:32:57;;;;;;;;;;;11.10;99.90;;;;;;5024505;28;20355;-66
2022/11/11 02:35:32;;;;;;;;;;;11.00;99.90;;;;;;5034626;28;19921;-66
2022/11/11 02:37:59;;;;;;;;;;;11.10;99.90;;;;;;5015705;28;19968;-66
2022/11/11 02:40:31;;;;;;;;;;;11.00;99.90;;;;;;5034038;28;20398;-66
2022/11/11 02:42:57;;;;;;;;;;;11.00;99.90;;;;;;5016555;28;19947;-66
2022/11/11 02:45:22;;;;;;;;;;;11.00;99.90;;;;;;5033346;28;19933;-67
2022/11/11 02:47:48;;;;;;;;;;;11.00;99.90;;;;;;5016669;28;19921;-66
2022/11/11 02:50:13;;;;;;;;;;;11.00;99.90;;;;;;5013057;28;19925;-66
2022/11/11 02:52:39;;;;;;;;;;;11.00;99.90;;;;;;5013897;28;19925;-66
2022/11/11 02:55:05;;;;;;;;;;;11.00;99.90;;;;;;5016098;28;20012;-67
2022/11/11 02:57:30;;;;;;;;;;;10.90;99.90;;;;;;5016385;28;19967;-66
2022/11/11 02:59:57;;;;;;;;;;;11.00;99.90;;;;;;5033718;28;19971;-66
2022/11/11 03:02:26;;;;;;;;;;;11.00;99.90;;;;;;5033182;28;20031;-66
2022/11/11 03:04:54;;;;;;;;;;;11.00;99.90;;;;;;5016054;28;19925;-67
2022/11/11 03:07:20;;;;;;;;;;;11.00;99.90;;;;;;5016109;28;20557;-67
2022/11/11 03:09:46;;;;;;;;;;;10.90;99.90;;;;;;5014611;28;20019;-66
2022/11/11 03:12:11;;;;;;;;;;;10.90;99.90;;;;;;5015678;28;19936;-66
2022/11/11 03:14:37;;;;;;;;;;;10.90;99.90;;;;;;5033692;28;20008;-67
2022/11/11 03:19:46;;;;;;;;;;;10.90;99.90;;;;;;5015254;28;20287;-66
2022/11/11 03:22:12;;;;;;;;;;;10.90;99.90;;;;;;5033949;28;20000;-67
2022/11/11 03:27:22;;;;;;;;;;;11.00;99.90;;;;;;5022636;28;20004;-67
2022/11/11 03:29:47;;;;;;;;;;;11.00;99.90;;;;;;5015147;28;20015;-66
2022/11/11 03:32:13;;;;;;;;;;;11.00;99.90;;;;;;5006318;28;19931;-66
2022/11/11 03:34:38;;;;;;;;;;;11.00;99.90;;;;;;5005371;28;19987;-66
2022/11/11 03:39:49;;;;;;;;;;;11.00;99.90;;;;;;5025887;28;19925;-66
2022/11/11 03:42:14;;;;;;;;;;;11.00;99.90;;;;;;5032130;28;19932;-66
2022/11/11 03:44:40;;;;;;;;;;;11.00;99.90;;;;;;5032457;28;19925;-66
2022/11/11 03:47:05;;;;;;;;;;;11.00;99.90;;;;;;5037603;28;19925;-66
2022/11/11 03:49:31;;;;;;;;;;;11.00;99.90;;;;;;5029197;28;19925;-66
2022/11/11 03:51:56;;;;;;;;;;;11.10;99.90;;;;;;5032083;28;19968;-66
2022/11/11 03:54:22;;;;;;;;;;;11.10;99.90;;;;;;5013643;28;19921;-66
2022/11/11 03:56:47;;;;;;;;;;;11.00;99.90;;;;;;5032718;28;19928;-66
2022/11/11 03:59:13;;;;;;;;;;;11.00;99.90;;;;;;5007620;28;19944;-66
2022/11/11 04:16:04;;;;;;;;;;;11.00;99.90;;;;;;5032548;28;20618;-66
2022/11/11 04:18:07;;;;;;;;;;;11.00;99.90;;;;;;5032720;28;19929;-66
2022/11/11 04:23:17;;;;;;;;;;;11.00;99.90;;;;;;5032712;28;19925;-66
2022/11/11 04:25:48;;;;;;;;;;;11.00;99.90;;;;;;5014638;28;19921;-66
2022/11/11 04:30:58;;;;;;;;;;;11.00;99.90;;;;;;5014324;28;19925;-66
2022/11/11 04:33:24;;;;;;;;;;;11.00;99.90;;;;;;5017058;28;20478;-66
2022/11/11 04:35:49;;;;;;;;;;;11.00;99.90;;;;;;5029968;28;19925;-67
2022/11/11 04:41:02;;;;;;;;;;;10.90;99.90;;;;;;5030020;28;19921;-66
2022/11/11 04:43:28;;;;;;;;;;;10.90;99.90;;;;;;4997143;28;19921;-67
2022/11/11 04:45:56;;;;;;;;;;;11.00;99.90;;;;;;5027543;28;19928;-67
2022/11/11 04:48:22;;;;;;;;;;;11.00;99.90;;;;;;5014493;28;20374;-67
2022/11/11 04:50:47;;;;;;;;;;;11.00;99.90;;;;;;5013111;28;19983;-67
2022/11/11 04:53:14;;;;;;;;;;;10.90;99.90;;;;;;5029828;28;20699;-67
2022/11/11 04:58:25;;;;;;;;;;;11.00;99.90;;;;;;5031924;28;19925;-67
2022/11/11 05:00:51;;;;;;;;;;;11.00;99.90;;;;;;5031080;28;19921;-67
2022/11/11 05:03:17;;;;;;;;;;;11.00;99.90;;;;;;5030097;28;19921;-67
2022/11/11 05:11:24;;;;;;;;;;;10.90;99.90;;;;;;5030389;28;19972;-67
2022/11/11 05:22:11;;;;;;;;;;;10.90;99.90;;;;;;5027262;22;19925;-67
2022/11/11 05:27:21;;;;;;;;;;;10.90;99.90;;;;;;5018752;28;19925;-67
2022/11/11 05:29:47;;;;;;;;;;;11.00;99.90;;;;;;5013421;28;19925;-67
2022/11/11 05:32:20;;;;;;;;;;;11.00;99.90;;;;;;5025744;28;19967;-67
2022/11/11 05:34:45;;;;;;;;;;;11.00;99.90;;;;;;5012701;28;19960;-67
2022/11/11 05:37:11;;;;;;;;;;;11.00;99.90;;;;;;5030141;28;20509;-67
2022/11/11 05:39:36;;;;;;;;;;;11.10;99.90;;;;;;5030690;28;19933;-67
2022/11/11 05:42:02;;;;;;;;;;;11.10;99.90;;;;;;5030743;28;19921;-67
2022/11/11 05:44:27;;;;;;;;;;;11.10;99.90;;;;;;5011647;28;19964;-67
2022/11/11 05:46:53;;;;;;;;;;;11.10;99.90;;;;;;5028193;28;20012;-67
2022/11/11 05:49:18;;;;;;;;;;;11.10;99.90;;;;;;5031602;28;19925;-67
2022/11/11 05:51:44;;;;;;;;;;;11.10;99.90;;;;;;5012907;28;19929;-67
2022/11/11 05:54:10;;;;;;;;;;;11.10;99.90;;;;;;5029387;28;19921;-67
2022/11/11 05:56:36;;;;;;;;;;;11.10;99.90;;;;;;5030201;28;19928;-67
2022/11/11 05:59:01;;;;;;;;;;;11.10;99.90;;;;;;5031587;28;19925;-67
2022/11/11 06:01:27;;;;;;;;;;;11.10;99.90;;;;;;5034149;28;19951;-67
2022/11/11 06:03:52;;;;;;;;;;;11.10;99.90;;;;;;5013418;28;20402;-67
2022/11/11 06:06:18;;;;;;;;;;;11.10;99.90;;;;;;5017592;28;19925;-67
2022/11/11 06:08:43;;;;;;;;;;;11.00;99.90;;;;;;5034481;28;19922;-67
2022/11/11 06:11:09;;;;;;;;;;;11.10;99.90;;;;;;5017166;28;19921;-67
2022/11/11 06:13:34;;;;;;;;;;;11.10;99.90;;;;;;5017166;28;19925;-67
2022/11/11 06:16:00;;;;;;;;;;;11.10;99.90;;;;;;5015155;28;19921;-67
2022/11/11 06:18:26;;;;;;;;;;;11.10;99.90;;;;;;5015083;28;19948;-67
2022/11/11 06:20:52;;;;;;;;;;;11.10;99.90;;;;;;5017221;28;19928;-67
2022/11/11 06:23:18;;;;;;;;;;;11.10;99.90;;;;;;5034825;28;19922;-67
2022/11/11 06:28:28;;;;;;;;;;;11.00;99.90;;;;;;5032932;28;19960;-67
2022/11/11 06:30:53;;;;;;;;;;;11.00;99.90;;;;;;5032355;28;20570;-67
2022/11/11 06:33:20;;;;;;;;;;;11.00;99.90;;;;;;5034484;28;19925;-67
2022/11/11 06:35:46;;;;;;;;;;;11.00;99.90;;;;;;5015863;28;19944;-67
2022/11/11 06:38:11;;;;;;;;;;;11.00;99.90;;;;;;5031711;28;20432;-67
2022/11/11 06:40:37;;;;;;;;;;;11.00;99.90;;;;;;5015012;28;19929;-67
2022/11/11 06:43:02;;;;;;;;;;;11.00;99.90;;;;;;5015421;28;19921;-67
2022/11/11 06:45:29;;;;;;;;;;;11.00;99.90;;;;;;5032184;28;19999;-67
2022/11/11 06:47:55;;;;;;;;;;;11.00;99.90;;;;;;5015846;28;19921;-67
2022/11/11 06:50:20;;;;;;;;;;;11.10;99.90;;;;;;5033105;28;20028;-67
2022/11/11 06:52:46;;;;;;;;;;;11.00;99.90;;;;;;5014552;28;20665;-67
2022/11/11 06:55:13;;;;;;;;;;;11.10;99.90;;;;;;5033188;28;20252;-67
2022/11/11 06:57:38;;;;;;;;;;;11.00;99.90;;;;;;5033072;28;20000;-67
2022/11/11 07:00:05;;;;;;;;;;;11.00;99.90;;;;;;5013723;28;20048;-67
2022/11/11 07:02:31;;;;;;;;;;;11.00;99.90;;;;;;5033058;28;19921;-67
2022/11/11 07:04:56;;;;;;;;;;;11.00;99.90;;;;;;5032747;28;19944;-67
2022/11/11 07:07:21;;;;;;;;;;;11.00;99.90;;;;;;5034051;28;19971;-67
2022/11/11 07:09:47;;;;;;;;;;;11.00;99.90;;;;;;5013803;28;20721;-67
2022/11/11 07:12:13;;;;;;;;;;;11.00;99.90;;;;;;5033418;28;19933;-67
2022/11/11 07:14:38;;;;;;;;;;;11.10;99.90;;;;;;5032830;28;20378;-67
2022/11/11 07:17:04;;;;;;;;;;;11.10;99.90;;;;;;5030347;28;19925;-67
2022/11/11 07:19:29;;;;;;;;;;;11.10;99.90;;;;;;5015464;28;20419;-68
2022/11/11 07:21:55;;;;;;;;;;;11.00;99.90;;;;;;5031182;28;19947;-68
2022/11/11 07:24:20;;;;;;;;;;;11.10;99.90;;;;;;5033515;28;19951;-67
2022/11/11 07:26:46;;;;;;;;;;;11.10;99.90;;;;;;5033749;28;20059;-67
2022/11/11 07:29:14;;;;;;;;;;;11.10;99.90;;;;;;5012967;28;19929;-67
2022/11/11 07:31:40;;;;;;;;;;;11.10;99.90;;;;;;5011661;28;19976;-67
2022/11/11 07:34:05;;;;;;;;;;;11.10;99.90;;;;;;5014987;28;19928;-67
2022/11/11 07:36:31;;;;;;;;;;;11.10;99.90;;;;;;5032074;28;19921;-67
2022/11/11 07:38:56;;;;;;;;;;;11.10;99.90;;;;;;5033031;28;20475;-67
2022/11/11 07:41:22;;;;;;;;;;;11.20;99.90;;;;;;5033489;28;19921;-67
2022/11/11 07:43:47;;;;;;;;;;;11.10;99.90;;;;;;5032043;28;20378;-67
2022/11/11 07:46:13;;;;;;;;;;;11.10;99.90;;;;;;5015577;28;20020;-67
2022/11/11 07:48:38;;;;;;;;;;;11.20;99.90;;;;;;5033168;28;19928;-67
2022/11/11 07:51:04;;;;;;;;;;;11.20;99.90;;;;;;5032511;28;19967;-67
2022/11/11 07:53:29;;;;;;;;;;;11.20;99.90;;;;;;5015464;28;19935;-67
2022/11/11 07:55:54;;;;;;;;;;;11.20;99.90;;;;;;5032219;28;20011;-67
2022/11/11 07:58:20;;;;;;;;;;;11.20;99.90;;;;;;5013769;28;19932;-68
2022/11/11 08:00:46;;;;;;;;;;;11.20;99.90;;;;;;5032636;28;19925;-67
2022/11/11 08:03:11;;;;;;;;;;;11.30;99.90;;;;;;5011324;28;19921;-67
2022/11/11 08:05:37;;;;;;;;;;;11.30;99.90;;;;;;5025946;28;20382;-67
2022/11/11 08:08:04;;;;;;;;;;;11.30;99.90;;;;;;5026932;28;19952;-66
2022/11/11 08:10:29;;;;;;;;;;;11.30;99.90;;;;;;5014795;28;19928;-67
2022/11/11 08:15:39;;;;;;;;;;;11.40;99.90;;;;;;5024510;28;19925;-67
2022/11/11 08:18:04;;;;;;;;;;;11.30;99.90;;;;;;5030062;28;19928;-67
2022/11/11 08:20:30;;;;;;;;;;;11.30;99.90;;;;;;5032506;28;19963;-67
2022/11/11 08:22:57;;;;;;;;;;;11.40;99.90;;;;;;5029985;28;19929;-67
2022/11/11 08:25:23;;;;;;;;;;;11.30;99.90;;;;;;5014576;28;19929;-67
2022/11/11 08:27:48;;;;;;;;;;;11.40;99.90;;;;;;5003319;28;19967;-67
2022/11/11 08:30:14;;;;;;;;;;;11.40;99.90;;;;;;5028036;28;19924;-67
2022/11/11 08:32:39;;;;;;;;;;;11.40;99.90;;;;;;5004151;28;20375;-67
2022/11/11 08:35:05;;;;;;;;;;;11.50;99.90;;;;;;5023757;28;19924;-67
2022/11/11 08:37:30;;;;;;;;;;;11.40;99.90;;;;;;5012271;28;19921;-67
2022/11/11 08:39:56;;;;;;;;;;;11.40;99.90;;;;;;5030806;28;19929;-67
2022/11/11 08:42:22;;;;;;;;;;;11.50;99.90;;;;;;5026428;28;19921;-67
2022/11/11 08:44:48;;;;;;;;;;;11.50;99.90;;;;;;5028641;28;20402;-67
2022/11/11 08:47:13;;;;;;;;;;;11.50;99.90;;;;;;5027848;28;19966;-67
2022/11/11 08:49:39;;;;;;;;;;;11.60;99.90;;;;;;5007226;28;19944;-67
2022/11/11 08:52:04;;;;;;;;;;;11.60;99.90;;;;;;5019622;28;20360;-67
2022/11/11 08:54:29;;;;;;;;;;;11.50;99.90;;;;;;5004933;28;19925;-67
2022/11/11 08:56:55;;;;;;;;;;;11.60;99.90;;;;;;5018206;28;20042;-67
2022/11/11 08:59:20;;;;;;;;;;;11.60;99.90;;;;;;5025981;28;20371;-67
2022/11/11 09:01:46;;;;;;;;;;;11.70;99.90;;;;;;5030110;28;20003;-67
2022/11/11 09:04:11;;;;;;;;;;;11.70;99.90;;;;;;5012257;28;19921;-67
2022/11/11 09:06:38;;;;;;;;;;;11.70;99.90;;;;;;5014766;28;20277;-67
2022/11/11 09:09:04;;;;;;;;;;;11.70;99.90;;;;;;5025552;28;20016;-67
2022/11/11 09:11:35;;;;;;;;;;;11.70;99.90;;;;;;5018220;28;20015;-67
2022/11/11 09:14:00;;;;;;;;;;;11.70;99.90;;;;;;5028663;28;19975;-67
2022/11/11 09:16:26;;;;;;;;;;;11.70;99.90;;;;;;5012864;28;19921;-67
2022/11/11 09:18:51;;;;;;;;;;;11.80;99.90;;;;;;5026617;28;19939;-67
2022/11/11 09:21:17;;;;;;;;;;;11.80;99.90;;;;;;5007002;28;20027;-67
2022/11/11 09:23:42;;;;;;;;;;;11.80;99.90;;;;;;5016888;28;19979;-67
2022/11/11 09:26:08;;;;;;;;;;;11.80;99.90;;;;;;5008734;28;19980;-67
2022/11/11 09:28:34;;;;;;;;;;;11.80;99.90;;;;;;5025082;28;19932;-67
2022/11/11 09:31:00;;;;;;;;;;;11.80;99.90;;;;;;5025566;28;19921;-67
2022/11/11 09:33:25;;;;;;;;;;;11.80;99.90;;;;;;5028983;28;20267;-67
2022/11/11 09:35:51;;;;;;;;;;;11.90;99.90;;;;;;5011494;28;19932;-67
2022/11/11 09:38:16;;;;;;;;;;;11.90;99.90;;;;;;5035373;28;19952;-67
2022/11/11 09:40:53;;;;;;;;;;;12.00;99.90;;;;;;5018081;28;19925;-67
2022/11/11 09:43:38;;;;;;;;;;;12.00;99.90;;;;;;5004745;28;19921;-67
2022/11/11 09:46:21;;;;;;;;;;;12.00;99.90;;;;;;5025073;28;19921;-67
2022/11/11 09:49:10;;;;;;;;;;;12.00;99.90;;;;;;5026635;28;19931;-67
2022/11/11 09:51:54;;;;;;;;;;;12.00;99.90;;;;;;5029924;28;19925;-67
2022/11/11 09:54:26;;;;;;;;;;;12.00;99.90;;;;;;5023969;28;19921;-67
2022/11/11 09:56:52;;;;;;;;;;;12.10;99.90;;;;;;5019206;28;19921;-67
2022/11/11 09:59:21;;;;;;;;;;;12.10;99.90;;;;;;5014767;28;19940;-67
2022/11/11 10:01:49;;;;;;;;;;;12.10;99.90;;;;;;5022602;28;19929;-67
2022/11/11 10:04:33;;;;;;;;;;;12.20;99.90;;;;;;5017476;28;20391;-67
2022/11/11 10:07:04;;;;;;;;;;;12.20;99.90;;;;;;5026344;28;20097;-67
2022/11/11 10:09:33;;;;;;;;;;;12.20;99.90;;;;;;5028168;28;19921;-67
2022/11/11 10:12:01;;;;;;;;;;;12.20;99.90;;;;;;5016205;28;19932;-67
2022/11/11 10:14:32;;;;;;;;;;;12.20;99.90;;;;;;5034820;28;19925;-67
2022/11/11 10:17:16;;;;;;;;;;;12.20;99.90;;;;;;5028465;28;19931;-67
2022/11/11 10:19:59;;;;;;;;;;;12.30;99.90;;;;;;5018520;28;20064;-67
2022/11/11 10:22:35;;;;;;;;;;;12.30;99.90;;;;;;5015836;28;19929;-67
2022/11/11 10:25:03;;;;;;;;;;;12.30;99.90;;;;;;5023179;28;19930;-67
2022/11/11 10:27:30;;;;;;;;;;;12.30;99.90;;;;;;5022941;28;20009;-67
2022/11/11 10:29:55;;;;;;;;;;;12.30;99.90;;;;;;5021632;28;19921;-67
2022/11/11 10:32:24;;;;;;;;;;;12.30;99.90;;;;;;5027677;28;20511;-67
2022/11/11 10:34:50;;;;;;;;;;;12.30;99.90;;;;;;5005208;28;19930;-67
2022/11/11 10:37:30;;;;;;;;;;;12.30;99.90;;;;;;5013952;28;20317;-67
2022/11/11 10:39:55;;;;;;;;;;;12.40;99.90;;;;;;5005462;28;19948;-67
2022/11/11 10:42:21;;;;;;;;;;;12.40;99.90;;;;;;5029308;28;20399;-67
2022/11/11 10:44:46;;;;;;;;;;;12.50;99.90;;;;;;5010188;28;19991;-67
2022/11/11 10:47:18;;;;;;;;;;;12.50;99.90;;;;;;5031266;28;19930;-66
2022/11/11 10:49:49;;;;;;;;;;;12.60;99.90;;;;;;5009866;28;20275;-67
2022/11/11 10:52:19;;;;;;;;;;;12.50;99.90;;;;;;5032095;28;19940;-67
2022/11/11 10:54:49;;;;;;;;;;;12.50;99.90;;;;;;5011168;28;19925;-67
2022/11/11 10:57:21;;;;;;;;;;;12.60;99.90;;;;;;5013804;28;19921;-67
2022/11/11 10:59:50;;;;;;;;;;;12.60;99.90;;;;;;5006417;28;20031;-67
2022/11/11 11:02:20;;;;;;;;;;;12.60;99.90;;;;;;5022391;28;20015;-67
2022/11/11 11:04:54;;;;;;;;;;;12.60;99.90;;;;;;5020810;28;19925;-67
2022/11/11 11:07:23;;;;;;;;;;;12.70;99.90;;;;;;5029662;28;20362;-67
2022/11/11 11:10:04;;;;;;;;;;;12.70;99.90;;;;;;5015837;28;20332;-67
2022/11/11 11:12:51;;;;;;;;;;;12.80;99.90;;;;;;5029390;28;19925;-67
2022/11/11 11:15:19;;;;;;;;;;;12.70;99.90;;;;;;5014448;28;19924;-67
2022/11/11 11:17:50;;;;;;;;;;;12.80;99.90;;;;;;4999337;28;19929;-67
2022/11/11 11:20:20;;;;;;;;;;;12.90;99.90;;;;;;4994356;28;20547;-67
2022/11/11 11:22:47;;;;;;;;;;;12.90;99.90;;;;;;5009799;28;19932;-67
2022/11/11 11:25:13;;;;;;;;;;;12.90;99.90;;;;;;5012592;28;19956;-67
2022/11/11 11:27:39;;;;;;;;;;;12.90;99.90;;;;;;5029451;28;20394;-67
2022/11/11 11:30:11;;;;;;;;;;;12.90;99.90;;;;;;5012281;28;19932;-67
2022/11/11 11:32:37;;;;;;;;;;;13.00;99.90;;;;;;5023873;28;19956;-67
2022/11/11 11:35:03;;;;;;;;;;;13.00;99.90;;;;;;5031964;28;19921;-67
2022/11/11 11:37:28;;;;;;;;;;;13.00;99.90;;;;;;5003456;28;19948;-67
2022/11/11 11:40:00;;;;;;;;;;;12.90;99.90;;;;;;5005467;28;20379;-67
2022/11/11 11:42:28;;;;;;;;;;;12.90;99.90;;;;;;5007518;28;19928;-68
2022/11/11 11:44:53;;;;;;;;;;;12.90;99.90;;;;;;5024812;28;20027;-68
2022/11/11 11:47:21;;;;;;;;;;;12.80;99.90;;;;;;5010940;28;20037;-68
2022/11/11 11:49:57;;;;;;;;;;;12.90;99.90;;;;;;5028926;28;19929;-68
2022/11/11 11:52:41;;;;;;;;;;;12.90;99.90;;;;;;5029248;28;19925;-68
2022/11/11 11:55:39;;;;;;;;;;;12.80;99.90;;;;;;5002657;28;19935;-68
2022/11/11 11:58:27;;;;;;;;;;;12.80;99.90;;;;;;4962261;28;19928;-68
2022/11/11 12:01:11;;;;;;;;;;;12.80;99.90;;;;;;5024730;28;19984;-68
2022/11/11 12:03:39;;;;;;;;;;;12.90;99.90;;;;;;5016259;28;19926;-68
2022/11/11 12:06:16;;;;;;;;;;;12.80;99.90;;;;;;4987942;28;19979;-67
2022/11/11 12:09:00;;;;;;;;;;;12.80;99.90;;;;;;4986079;28;20291;-67
2022/11/11 12:11:37;;;;;;;;;;;12.80;99.90;;;;;;5032858;28;19994;-67
2022/11/11 12:14:15;;;;;;;;;;;12.80;99.90;;;;;;5005863;28;19931;-67
2022/11/11 12:16:43;;;;;;;;;;;12.80;99.90;;;;;;5017364;28;20252;-67
2022/11/11 12:19:09;;;;;;;;;;;12.80;99.90;;;;;;5027239;28;19971;-67
2022/11/11 12:21:46;;;;;;;;;;;12.80;99.90;;;;;;5024559;28;20367;-67
2022/11/11 12:24:12;;;;;;;;;;;12.80;99.90;;;;;;4984691;28;19937;-67
2022/11/11 12:26:52;;;;;;;;;;;12.80;99.90;;;;;;4981873;28;20283;-67
2022/11/11 12:29:33;;;;;;;;;;;12.80;99.90;;;;;;4977880;28;19930;-67
2022/11/11 12:32:22;;;;;;;;;;;12.80;99.90;;;;;;4981844;28;19972;-67
2022/11/11 12:35:11;;;;;;;;;;;12.80;99.90;;;;;;4984298;28;19928;-66
2022/11/11 12:37:47;;;;;;;;;;;12.80;99.90;;;;;;4967042;28;20017;-67
2022/11/11 12:40:32;;;;;;;;;;;12.70;99.90;;;;;;4991001;28;19930;-66
2022/11/11 12:43:09;;;;;;;;;;;12.80;99.90;;;;;;4989497;28;19984;-67
2022/11/11 12:45:38;;;;;;;;;;;12.80;99.90;;;;;;5004184;28;19926;-66
2022/11/11 12:48:12;;;;;;;;;;;12.80;99.90;;;;;;4985356;28;19922;-66
2022/11/11 12:50:44;;;;;;;;;;;12.80;99.90;;;;;;4986838;28;19926;-66
2022/11/11 12:53:13;;;;;;;;;;;12.80;99.90;;;;;;4986116;28;19926;-67
2022/11/11 12:55:57;;;;;;;;;;;12.90;99.90;;;;;;4989143;28;19934;-67
2022/11/11 12:58:34;;;;;;;;;;;12.80;99.90;;;;;;4986486;28;19957;-67
2022/11/11 13:01:18;;;;;;;;;;;12.90;99.90;;;;;;4989350;28;19929;-67
2022/11/11 13:03:58;;;;;;;;;;;12.90;99.90;;;;;;4987515;28;20375;-66
2022/11/11 13:06:36;;;;;;;;;;;12.90;99.90;;;;;;4978622;28;19926;-66
2022/11/11 13:09:37;;;;;;;;;;;12.80;99.90;;;;;;4978956;28;19929;-66
2022/11/11 13:12:02;;;;;;;;;;;12.80;99.90;;;;;;4928716;29;19931;-67
2022/11/11 13:14:40;;;;;;;;;;;12.90;99.90;;;;;;4973359;28;20284;-66
2022/11/11 13:17:09;;;;;;;;;;;12.90;99.90;;;;;;4983729;28;19950;-67
2022/11/11 13:19:35;;;;;;;;;;;12.90;99.90;;;;;;5005989;28;19937;-67
2022/11/11 13:22:13;;;;;;;;;;;12.90;99.90;;;;;;4992994;28;19925;-67
2022/11/11 13:24:38;;;;;;;;;;;12.90;99.90;;;;;;5005672;28;19929;-67
2022/11/11 13:27:18;;;;;;;;;;;12.80;99.90;;;;;;5027071;28;19944;-67
2022/11/11 13:29:44;;;;;;;;;;;12.80;99.90;;;;;;5032546;28;19929;-67
2022/11/11 13:32:12;;;;;;;;;;;12.80;99.90;;;;;;5011986;28;19948;-67
2022/11/11 13:34:39;;;;;;;;;;;12.70;99.90;;;;;;5002868;28;19979;-67
2022/11/11 13:37:06;;;;;;;;;;;12.70;99.90;;;;;;5019380;28;20228;-67
2022/11/11 13:39:37;;;;;;;;;;;12.70;99.90;;;;;;5026686;28;19921;-67
2022/11/11 13:42:02;;;;;;;;;;;12.70;99.90;;;;;;5018569;28;20367;-67
2022/11/11 13:44:28;;;;;;;;;;;12.70;99.90;;;;;;4998857;28;19929;-67
2022/11/11 13:46:59;;;;;;;;;;;12.70;99.90;;;;;;5005410;28;19929;-67
2022/11/11 13:49:27;;;;;;;;;;;12.70;99.90;;;;;;5015864;28;19929;-67
2022/11/11 13:51:56;;;;;;;;;;;12.60;99.90;;;;;;5003433;28;19933;-67
2022/11/11 13:54:48;;;;;;;;;;;12.60;99.90;;;;;;4999189;28;19961;-67
2022/11/11 13:57:20;;;;;;;;;;;12.60;99.90;;;;;;4999938;28;19936;-67
2022/11/11 14:00:03;;;;;;;;;;;12.60;99.90;;;;;;4999741;28;20008;-67
2022/11/11 14:02:32;;;;;;;;;;;12.60;99.90;;;;;;5019556;28;19925;-67
2022/11/11 14:05:01;;;;;;;;;;;12.50;99.90;;;;;;5022743;28;20252;-67
2022/11/11 14:07:47;;;;;;;;;;;12.60;99.90;;;;;;5020597;28;19928;-67
2022/11/11 14:10:16;;;;;;;;;;;12.60;99.90;;;;;;5024838;28;20011;-67
2022/11/11 14:12:41;;;;;;;;;;;12.60;99.90;;;;;;5001851;28;19925;-67
2022/11/11 14:15:27;;;;;;;;;;;12.60;99.90;;;;;;5023523;28;19936;-67
2022/11/11 14:17:52;;;;;;;;;;;12.60;99.90;;;;;;5020850;28;19930;-67
2022/11/11 14:20:41;;;;;;;;;;;12.60;99.90;;;;;;5007259;28;19927;-67
2022/11/11 14:23:24;;;;;;;;;;;12.60;99.90;;;;;;4997167;28;19943;-67
2022/11/11 14:26:06;;;;;;;;;;;12.50;99.90;;;;;;5025660;28;19929;-67
2022/11/11 14:28:32;;;;;;;;;;;12.50;99.90;;;;;;5031833;28;20404;-67
2022/11/11 14:31:13;;;;;;;;;;;12.50;99.90;;;;;;5007229;28;19925;-67
2022/11/11 14:33:41;;;;;;;;;;;12.50;99.90;;;;;;5035153;28;19932;-67
2022/11/11 14:36:20;;;;;;;;;;;12.40;99.90;;;;;;5028142;28;19932;-67
2022/11/11 14:38:55;;;;;;;;;;;12.40;99.90;;;;;;5027408;28;19925;-67
2022/11/11 14:41:38;;;;;;;;;;;12.40;99.90;;;;;;5032021;28;19932;-67
2022/11/11 14:44:23;;;;;;;;;;;12.40;99.90;;;;;;5009601;28;20366;-67
2022/11/11 14:47:06;;;;;;;;;;;12.40;99.90;;;;;;5030199;28;20016;-67
2022/11/11 14:49:44;;;;;;;;;;;12.30;99.90;;;;;;4992162;28;19921;-67
2022/11/11 14:52:25;;;;;;;;;;;12.30;99.90;;;;;;5000659;28;19977;-67
2022/11/11 14:54:53;;;;;;;;;;;12.30;99.90;;;;;;5031260;28;19964;-67
2022/11/11 14:57:24;;;;;;;;;;;12.20;99.90;;;;;;5022997;28;19950;-67
2022/11/11 14:59:50;;;;;;;;;;;12.20;99.90;;;;;;5002824;28;19922;-67
2022/11/11 15:02:27;;;;;;;;;;;12.20;99.90;;;;;;5026228;28;19925;-67
2022/11/11 15:04:53;;;;;;;;;;;12.20;99.90;;;;;;5007578;28;19921;-67
2022/11/11 15:07:37;;;;;;;;;;;12.20;99.90;;;;;;5024736;28;19988;-67
2022/11/11 15:10:09;;;;;;;;;;;12.20;99.90;;;;;;5026103;28;19921;-67
2022/11/11 15:12:41;;;;;;;;;;;12.10;99.90;;;;;;5002047;28;20012;-67
2022/11/11 15:15:17;;;;;;;;;;;12.10;99.90;;;;;;5004428;28;19945;-67
2022/11/11 15:18:01;;;;;;;;;;;12.10;99.90;;;;;;5025009;28;19975;-67
2022/11/11 15:20:40;;;;;;;;;;;12.10;99.90;;;;;;5000720;28;20397;-67
2022/11/11 15:23:12;;;;;;;;;;;12.10;99.90;;;;;;5026560;28;20422;-67
2022/11/11 15:25:46;;;;;;;;;;;12.10;99.90;;;;;;5000149;28;19940;-67
2022/11/11 15:28:18;;;;;;;;;;;12.10;99.90;;;;;;5021558;28;20326;-67
2022/11/11 15:30:50;;;;;;;;;;;12.10;99.90;;;;;;5023955;28;19926;-67
2022/11/11 15:33:19;;;;;;;;;;;12.10;99.90;;;;;;5026506;28;19956;-67
2022/11/11 15:35:48;;;;;;;;;;;12.00;99.90;;;;;;5027329;28;20016;-67
2022/11/11 15:38:15;;;;;;;;;;;12.00;99.90;;;;;;5027693;28;20688;-67
2022/11/11 15:40:45;;;;;;;;;;;12.00;99.90;;;;;;5030545;28;19961;-67
2022/11/11 15:43:16;;;;;;;;;;;12.00;99.90;;;;;;5028446;28;19957;-67